sensor_id;sensor_type;location;lat;lon;timestamp;pressure;altitude;pressure_sealevel;temperature;humidity
56400;BME280;42298;53.638;9.876;2023-08-17T00:01:03;102093.50;;;19.18;63.81
56400;BME280;42298;53.638;9.876;2023-08-17T00:03:29;102086.84;;;19.06;64.09
56400;BME280;42298;53.638;9.876;2023-08-17T00:05:54;102088.88;;;19.03;64.44
56400;BME280;42298;53.638;9.876;2023-08-17T00:08:19;102082.72;;;18.95;64.57
56400;BME280;42298;53.638;9.876;2023-08-17T00:10:44;102081.63;;;18.89;65.00
56400;BME280;42298;53.638;9.876;2023-08-17T00:13:10;102077.22;;;18.88;65.05
56400;BME280;42298;53.638;9.876;2023-08-17T00:15:37;102064.84;;;18.79;64.94
56400;BME280;42298;53.638;9.876;2023-08-17T00:18:02;102075.56;;;18.87;64.77
56400;BME280;42298;53.638;9.876;2023-08-17T00:20:28;102085.69;;;18.85;65.05
56400;BME280;42298;53.638;9.876;2023-08-17T00:22:53;102080.97;;;18.87;65.06
56400;BME280;42298;53.638;9.876;2023-08-17T00:25:18;102083.66;;;18.87;65.22
56400;BME280;42298;53.638;9.876;2023-08-17T00:27:43;102078.91;;;18.89;65.37
56400;BME280;42298;53.638;9.876;2023-08-17T00:30:09;102073.59;;;18.81;65.02
56400;BME280;42298;53.638;9.876;2023-08-17T00:32:35;102087.75;;;18.83;65.27
56400;BME280;42298;53.638;9.876;2023-08-17T00:35:00;102093.63;;;18.87;65.54
56400;BME280;42298;53.638;9.876;2023-08-17T00:37:25;102088.22;;;18.87;65.10
56400;BME280;42298;53.638;9.876;2023-08-17T00:39:50;102078.75;;;18.91;65.45
56400;BME280;42298;53.638;9.876;2023-08-17T00:42:16;102089.16;;;18.94;65.27
56400;BME280;42298;53.638;9.876;2023-08-17T00:44:41;102086.28;;;18.95;65.18
56400;BME280;42298;53.638;9.876;2023-08-17T00:47:07;102075.84;;;18.92;65.50
56400;BME280;42298;53.638;9.876;2023-08-17T00:49:33;102078.75;;;18.91;65.45
56400;BME280;42298;53.638;9.876;2023-08-17T00:52:00;102076.22;;;18.89;65.37
56400;BME280;42298;53.638;9.876;2023-08-17T00:54:27;102066.75;;;18.93;65.62
56400;BME280;42298;53.638;9.876;2023-08-17T00:56:53;102064.88;;;18.94;65.65
56400;BME280;42298;53.638;9.876;2023-08-17T00:59:20;102062.56;;;18.91;65.52
56400;BME280;42298;53.638;9.876;2023-08-17T01:01:46;102067.28;;;18.89;65.55
56400;BME280;42298;53.638;9.876;2023-08-17T01:04:12;102070.81;;;18.89;65.55
56400;BME280;42298;53.638;9.876;2023-08-17T01:06:38;102071.81;;;18.88;65.68
56400;BME280;42298;53.638;9.876;2023-08-17T01:09:03;102060.84;;;18.90;65.65
56400;BME280;42298;53.638;9.876;2023-08-17T01:11:37;102042.69;;;18.84;65.54
56400;BME280;42298;53.638;9.876;2023-08-17T01:14:10;102052.81;;;18.81;65.68
56400;BME280;42298;53.638;9.876;2023-08-17T01:16:47;102050.66;;;18.77;65.75
56400;BME280;42298;53.638;9.876;2023-08-17T01:19:24;102048.34;;;18.74;65.67
56400;BME280;42298;53.638;9.876;2023-08-17T01:21:51;102034.91;;;18.66;66.06
56400;BME280;42298;53.638;9.876;2023-08-17T01:24:19;102041.34;;;18.65;65.89
56400;BME280;42298;53.638;9.876;2023-08-17T01:26:45;102035.28;;;18.63;65.93
56400;BME280;42298;53.638;9.876;2023-08-17T01:29:10;102027.91;;;18.56;66.30
56400;BME280;42298;53.638;9.876;2023-08-17T01:34:14;102038.41;;;18.51;66.29
56400;BME280;42298;53.638;9.876;2023-08-17T01:36:46;102050.22;;;18.50;66.16
56400;BME280;42298;53.638;9.876;2023-08-17T01:39:16;102042.59;;;18.54;66.44
56400;BME280;42298;53.638;9.876;2023-08-17T01:41:44;102036.56;;;18.52;65.96
56400;BME280;42298;53.638;9.876;2023-08-17T01:44:11;102041.28;;;18.50;66.17
56400;BME280;42298;53.638;9.876;2023-08-17T01:46:37;102041.84;;;18.45;65.95
56400;BME280;42298;53.638;9.876;2023-08-17T01:49:03;102042.94;;;18.36;66.22
56400;BME280;42298;53.638;9.876;2023-08-17T01:51:28;102052.03;;;18.35;66.39
56400;BME280;42298;53.638;9.876;2023-08-17T01:53:54;102059.09;;;18.36;66.46
56400;BME280;42298;53.638;9.876;2023-08-17T01:56:19;102065.81;;;18.40;66.50
56400;BME280;42298;53.638;9.876;2023-08-17T01:58:44;102058.72;;;18.39;66.39
56400;BME280;42298;53.638;9.876;2023-08-17T02:01:10;102066.78;;;18.47;66.28
56400;BME280;42298;53.638;9.876;2023-08-17T02:03:35;102070.13;;;18.49;66.42
56400;BME280;42298;53.638;9.876;2023-08-17T02:06:00;102078.34;;;18.56;66.05
56400;BME280;42298;53.638;9.876;2023-08-17T02:08:26;102077.69;;;18.54;66.02
56400;BME280;42298;53.638;9.876;2023-08-17T02:10:51;102067.44;;;18.49;65.85
56400;BME280;42298;53.638;9.876;2023-08-17T02:13:18;102075.69;;;18.48;66.22
56400;BME280;42298;53.638;9.876;2023-08-17T02:15:44;102063.41;;;18.45;66.09
56400;BME280;42298;53.638;9.876;2023-08-17T02:18:09;102063.78;;;18.42;66.45
56400;BME280;42298;53.638;9.876;2023-08-17T02:20:36;102058.72;;;18.39;66.56
56400;BME280;42298;53.638;9.876;2023-08-17T02:23:01;102049.81;;;18.38;66.75
56400;BME280;42298;53.638;9.876;2023-08-17T02:25:27;102050.34;;;18.34;66.97
56400;BME280;42298;53.638;9.876;2023-08-17T02:27:59;102060.22;;;18.41;66.76
56400;BME280;42298;53.638;9.876;2023-08-17T02:30:25;102035.72;;;18.51;66.56
56400;BME280;42298;53.638;9.876;2023-08-17T02:32:50;102042.44;;;18.55;66.65
56400;BME280;42298;53.638;9.876;2023-08-17T02:35:15;102036.72;;;18.50;66.63
56400;BME280;42298;53.638;9.876;2023-08-17T02:37:41;102038.59;;;18.50;66.55
56400;BME280;42298;53.638;9.876;2023-08-17T02:40:06;102016.78;;;18.36;66.85
56400;BME280;42298;53.638;9.876;2023-08-17T02:42:32;102025.06;;;18.35;67.24
56400;BME280;42298;53.638;9.876;2023-08-17T02:44:57;102025.91;;;18.35;67.23
56400;BME280;42298;53.638;9.876;2023-08-17T02:47:22;102018.00;;;18.34;67.35
56400;BME280;42298;53.638;9.876;2023-08-17T02:49:48;102032.97;;;18.36;67.61
56400;BME280;42298;53.638;9.876;2023-08-17T02:52:14;102033.63;;;18.38;67.60
56400;BME280;42298;53.638;9.876;2023-08-17T02:54:40;102031.41;;;18.42;67.62
56400;BME280;42298;53.638;9.876;2023-08-17T02:57:05;102032.59;;;18.39;67.64
56400;BME280;42298;53.638;9.876;2023-08-17T02:59:33;102029.91;;;18.39;67.95
56400;BME280;42298;53.638;9.876;2023-08-17T03:01:58;102034.63;;;18.37;67.92
56400;BME280;42298;53.638;9.876;2023-08-17T03:04:24;102030.09;;;18.38;67.82
56400;BME280;42298;53.638;9.876;2023-08-17T03:06:49;102034.84;;;18.36;67.98
56400;BME280;42298;53.638;9.876;2023-08-17T03:09:14;102033.13;;;18.35;68.18
56400;BME280;42298;53.638;9.876;2023-08-17T03:11:40;102047.78;;;18.40;68.06
56400;BME280;42298;53.638;9.876;2023-08-17T03:14:05;102040.69;;;18.39;67.90
56400;BME280;42298;53.638;9.876;2023-08-17T03:16:30;102037.31;;;18.37;67.66
56400;BME280;42298;53.638;9.876;2023-08-17T03:18:56;102031.75;;;18.39;68.19
56400;BME280;42298;53.638;9.876;2023-08-17T03:21:23;102035.59;;;18.45;68.09
56400;BME280;42298;53.638;9.876;2023-08-17T03:23:49;102033.09;;;18.43;68.18
56400;BME280;42298;53.638;9.876;2023-08-17T03:26:15;102030.75;;;18.40;68.14
56400;BME280;42298;53.638;9.876;2023-08-17T03:28:41;102035.13;;;18.41;68.02
56400;BME280;42298;53.638;9.876;2023-08-17T03:31:08;102023.94;;;18.29;68.47
56400;BME280;42298;53.638;9.876;2023-08-17T03:33:36;102014.41;;;18.18;68.65
56400;BME280;42298;53.638;9.876;2023-08-17T03:36:03;102032.75;;;18.23;68.64
56400;BME280;42298;53.638;9.876;2023-08-17T03:38:28;102030.22;;;18.22;68.86
56400;BME280;42298;53.638;9.876;2023-08-17T03:40:57;102034.81;;;18.13;69.13
56400;BME280;42298;53.638;9.876;2023-08-17T03:43:22;102033.44;;;18.17;69.47
56400;BME280;42298;53.638;9.876;2023-08-17T03:45:47;102043.69;;;18.22;69.23
56400;BME280;42298;53.638;9.876;2023-08-17T03:48:13;102026.69;;;18.21;68.88
56400;BME280;42298;53.638;9.876;2023-08-17T03:50:38;102039.66;;;18.17;69.20
56400;BME280;42298;53.638;9.876;2023-08-17T03:53:04;102041.19;;;18.20;69.15
56400;BME280;42298;53.638;9.876;2023-08-17T03:55:29;102045.00;;;18.26;69.08
56400;BME280;42298;53.638;9.876;2023-08-17T03:57:55;102035.25;;;18.25;69.27
56400;BME280;42298;53.638;9.876;2023-08-17T04:00:21;102039.75;;;18.32;68.92
56400;BME280;42298;53.638;9.876;2023-08-17T04:02:47;102032.75;;;18.23;69.00
56400;BME280;42298;53.638;9.876;2023-08-17T04:05:12;102035.72;;;18.28;69.06
56400;BME280;42298;53.638;9.876;2023-08-17T04:07:38;102035.59;;;18.22;68.95
56400;BME280;42298;53.638;9.876;2023-08-17T04:10:05;102032.44;;;18.18;69.08
56400;BME280;42298;53.638;9.876;2023-08-17T04:12:30;102041.97;;;18.29;68.85
56400;BME280;42298;53.638;9.876;2023-08-17T04:14:56;102036.38;;;18.30;68.70
56400;BME280;42298;53.638;9.876;2023-08-17T04:17:21;102037.59;;;18.28;68.96
56400;BME280;42298;53.638;9.876;2023-08-17T04:19:46;102025.47;;;18.24;69.03
56400;BME280;42298;53.638;9.876;2023-08-17T04:22:17;102039.19;;;18.37;68.98
56400;BME280;42298;53.638;9.876;2023-08-17T04:24:42;102035.13;;;18.41;68.74
56400;BME280;42298;53.638;9.876;2023-08-17T04:27:08;102044.53;;;18.45;68.41
56400;BME280;42298;53.638;9.876;2023-08-17T04:29:34;102044.59;;;18.37;68.63
56400;BME280;42298;53.638;9.876;2023-08-17T04:31:59;102046.63;;;18.35;69.14
56400;BME280;42298;53.638;9.876;2023-08-17T04:34:25;102055.38;;;18.37;69.27
56400;BME280;42298;53.638;9.876;2023-08-17T04:36:50;102044.59;;;18.37;69.15
56400;BME280;42298;53.638;9.876;2023-08-17T04:39:15;102054.66;;;18.43;68.90
56400;BME280;42298;53.638;9.876;2023-08-17T04:41:41;102051.69;;;18.38;69.13
56400;BME280;42298;53.638;9.876;2023-08-17T04:44:06;102059.22;;;18.43;69.09
56400;BME280;42298;53.638;9.876;2023-08-17T04:46:31;102064.13;;;18.39;69.26
56400;BME280;42298;53.638;9.876;2023-08-17T04:48:57;102053.00;;;18.42;69.50
56400;BME280;42298;53.638;9.876;2023-08-17T04:51:22;102056.69;;;18.41;69.33
56400;BME280;42298;53.638;9.876;2023-08-17T04:53:47;102058.28;;;18.35;69.47
56400;BME280;42298;53.638;9.876;2023-08-17T04:56:13;102064.97;;;18.39;69.69
56400;BME280;42298;53.638;9.876;2023-08-17T04:58:38;102059.56;;;18.39;69.44
56400;BME280;42298;53.638;9.876;2023-08-17T05:01:05;102069.63;;;18.46;69.91
56400;BME280;42298;53.638;9.876;2023-08-17T05:03:30;102073.25;;;18.38;70.12
56400;BME280;42298;53.638;9.876;2023-08-17T05:05:56;102074.91;;;18.39;70.21
56400;BME280;42298;53.638;9.876;2023-08-17T05:08:21;102076.50;;;18.33;70.83
56400;BME280;42298;53.638;9.876;2023-08-17T05:10:47;102082.56;;;18.35;71.42
56400;BME280;42298;53.638;9.876;2023-08-17T05:13:13;102063.56;;;18.29;71.40
56400;BME280;42298;53.638;9.876;2023-08-17T05:15:38;102083.38;;;18.36;71.47
56400;BME280;42298;53.638;9.876;2023-08-17T05:18:04;102071.69;;;18.20;71.91
56400;BME280;42298;53.638;9.876;2023-08-17T05:20:29;102075.59;;;18.18;71.99
56400;BME280;42298;53.638;9.876;2023-08-17T05:22:55;102090.47;;;18.06;72.74
56400;BME280;42298;53.638;9.876;2023-08-17T05:25:21;102074.06;;;17.84;73.30
56400;BME280;42298;53.638;9.876;2023-08-17T05:27:50;102092.25;;;17.90;73.34
56400;BME280;42298;53.638;9.876;2023-08-17T05:30:15;102077.44;;;17.86;73.76
56400;BME280;42298;53.638;9.876;2023-08-17T05:32:41;102088.88;;;17.88;74.00
56400;BME280;42298;53.638;9.876;2023-08-17T05:35:07;102098.16;;;17.86;74.19
56400;BME280;42298;53.638;9.876;2023-08-17T05:37:33;102099.53;;;17.82;74.63
56400;BME280;42298;53.638;9.876;2023-08-17T05:39:58;102096.81;;;17.82;74.13
56400;BME280;42298;53.638;9.876;2023-08-17T05:42:24;102096.66;;;17.83;74.20
56400;BME280;42298;53.638;9.876;2023-08-17T05:44:49;102096.50;;;17.85;74.34
56400;BME280;42298;53.638;9.876;2023-08-17T05:47:14;102105.75;;;17.82;73.83
56400;BME280;42298;53.638;9.876;2023-08-17T05:49:42;102093.78;;;17.76;74.03
56400;BME280;42298;53.638;9.876;2023-08-17T05:52:08;102085.06;;;17.66;74.41
56400;BME280;42298;53.638;9.876;2023-08-17T05:54:33;102101.38;;;17.73;74.47
56400;BME280;42298;53.638;9.876;2023-08-17T05:56:59;102106.59;;;17.74;74.54
56400;BME280;42298;53.638;9.876;2023-08-17T05:59:24;102109.28;;;17.74;74.66
56400;BME280;42298;53.638;9.876;2023-08-17T06:01:49;102115.50;;;17.75;74.79
56400;BME280;42298;53.638;9.876;2023-08-17T06:04:15;102116.34;;;17.75;75.24
56400;BME280;42298;53.638;9.876;2023-08-17T06:06:40;102119.38;;;17.81;74.90
56400;BME280;42298;53.638;9.876;2023-08-17T06:09:06;102110.28;;;17.82;75.05
56400;BME280;42298;53.638;9.876;2023-08-17T06:11:33;102114.50;;;17.84;75.08
56400;BME280;42298;53.638;9.876;2023-08-17T06:13:58;102113.66;;;17.84;75.29
56400;BME280;42298;53.638;9.876;2023-08-17T06:16:23;102109.25;;;17.91;75.07
56400;BME280;42298;53.638;9.876;2023-08-17T06:18:49;102105.56;;;17.92;75.20
56400;BME280;42298;53.638;9.876;2023-08-17T06:21:19;102106.38;;;17.92;75.10
56400;BME280;42298;53.638;9.876;2023-08-17T06:23:45;102104.50;;;17.93;75.14
56400;BME280;42298;53.638;9.876;2023-08-17T06:26:10;102109.44;;;17.89;75.08
56400;BME280;42298;53.638;9.876;2023-08-17T06:28:35;102107.75;;;17.88;75.17
56400;BME280;42298;53.638;9.876;2023-08-17T06:31:01;102107.59;;;17.82;75.28
56400;BME280;42298;53.638;9.876;2023-08-17T06:33:26;102101.72;;;17.78;75.56
56400;BME280;42298;53.638;9.876;2023-08-17T06:35:51;102110.97;;;17.75;75.74
56400;BME280;42298;53.638;9.876;2023-08-17T06:38:17;102105.41;;;17.77;75.93
56400;BME280;42298;53.638;9.876;2023-08-17T06:40:42;102105.91;;;17.81;75.58
56400;BME280;42298;53.638;9.876;2023-08-17T06:43:08;102108.44;;;17.82;76.02
56400;BME280;42298;53.638;9.876;2023-08-17T06:45:34;102103.53;;;17.77;75.95
56400;BME280;42298;53.638;9.876;2023-08-17T06:48:00;102105.56;;;17.75;75.97
56400;BME280;42298;53.638;9.876;2023-08-17T06:50:25;102097.84;;;17.72;76.34
56400;BME280;42298;53.638;9.876;2023-08-17T06:52:51;102098.34;;;17.76;76.32
56400;BME280;42298;53.638;9.876;2023-08-17T06:55:17;102095.47;;;17.77;76.15
56400;BME280;42298;53.638;9.876;2023-08-17T06:57:42;102107.78;;;17.72;76.41
56400;BME280;42298;53.638;9.876;2023-08-17T07:00:08;102103.09;;;17.66;76.81
56400;BME280;42298;53.638;9.876;2023-08-17T07:02:34;102105.47;;;17.61;77.39
56400;BME280;42298;53.638;9.876;2023-08-17T07:05:00;102095.22;;;17.56;77.20
56400;BME280;42298;53.638;9.876;2023-08-17T07:07:25;102085.78;;;17.60;77.46
56400;BME280;42298;53.638;9.876;2023-08-17T07:09:52;102094.66;;;17.69;77.03
56400;BME280;42298;53.638;9.876;2023-08-17T07:12:18;102093.81;;;17.68;77.23
56400;BME280;42298;53.638;9.876;2023-08-17T07:14:44;102082.38;;;17.66;77.29
56400;BME280;42298;53.638;9.876;2023-08-17T07:17:10;102092.50;;;17.64;77.72
56400;BME280;42298;53.638;9.876;2023-08-17T07:19:35;102090.47;;;17.66;77.68
56400;BME280;42298;53.638;9.876;2023-08-17T07:22:00;102081.53;;;17.66;77.45
56400;BME280;42298;53.638;9.876;2023-08-17T07:24:25;102081.53;;;17.66;77.23
56400;BME280;42298;53.638;9.876;2023-08-17T07:26:51;102083.75;;;17.62;77.60
56400;BME280;42298;53.638;9.876;2023-08-17T07:29:16;102087.59;;;17.68;77.79
56400;BME280;42298;53.638;9.876;2023-08-17T07:31:41;102085.94;;;17.67;77.54
56400;BME280;42298;53.638;9.876;2023-08-17T07:34:09;102077.19;;;17.65;77.68
56400;BME280;42298;53.638;9.876;2023-08-17T07:36:34;102087.44;;;17.69;77.49
56400;BME280;42298;53.638;9.876;2023-08-17T07:39:01;102080.69;;;17.73;77.65
56400;BME280;42298;53.638;9.876;2023-08-17T07:41:26;102093.97;;;17.75;77.47
56400;BME280;42298;53.638;9.876;2023-08-17T07:43:52;102091.47;;;17.73;77.06
56400;BME280;42298;53.638;9.876;2023-08-17T07:46:17;102088.97;;;17.64;77.56
56400;BME280;42298;53.638;9.876;2023-08-17T07:48:43;102096.22;;;17.63;78.00
56400;BME280;42298;53.638;9.876;2023-08-17T07:51:08;102094.72;;;17.61;77.88
56400;BME280;42298;53.638;9.876;2023-08-17T07:53:34;102109.28;;;17.74;77.98
56400;BME280;42298;53.638;9.876;2023-08-17T07:55:59;102107.78;;;17.80;77.87
56400;BME280;42298;53.638;9.876;2023-08-17T07:58:24;102100.84;;;17.86;77.53
56400;BME280;42298;53.638;9.876;2023-08-17T08:00:49;102099.19;;;17.85;77.46
56400;BME280;42298;53.638;9.876;2023-08-17T08:03:15;102099.50;;;17.90;77.69
56400;BME280;42298;53.638;9.876;2023-08-17T08:05:40;102098.59;;;17.97;77.41
56400;BME280;42298;53.638;9.876;2023-08-17T08:08:06;102103.97;;;17.97;77.26
56400;BME280;42298;53.638;9.876;2023-08-17T08:10:31;102093.88;;;17.99;77.10
56400;BME280;42298;53.638;9.876;2023-08-17T08:12:56;102108.53;;;17.97;77.46
56400;BME280;42298;53.638;9.876;2023-08-17T08:15:22;102098.25;;;18.01;77.63
56400;BME280;42298;53.638;9.876;2023-08-17T08:17:48;102104.63;;;18.08;77.47
56400;BME280;42298;53.638;9.876;2023-08-17T08:20:13;102096.41;;;18.01;77.39
56400;BME280;42298;53.638;9.876;2023-08-17T08:22:39;102101.13;;;17.99;77.50
56400;BME280;42298;53.638;9.876;2023-08-17T08:25:04;102101.13;;;17.99;77.45
56400;BME280;42298;53.638;9.876;2023-08-17T08:27:30;102097.44;;;18.00;77.77
56400;BME280;42298;53.638;9.876;2023-08-17T08:29:55;102099.41;;;18.06;77.69
56400;BME280;42298;53.638;9.876;2023-08-17T08:32:21;102110.56;;;17.95;77.79
56400;BME280;42298;53.638;9.876;2023-08-17T08:34:46;102097.75;;;17.97;77.82
56400;BME280;42298;53.638;9.876;2023-08-17T08:37:11;102106.16;;;18.02;77.57
56400;BME280;42298;53.638;9.876;2023-08-17T08:39:50;102101.75;;;18.09;77.79
56400;BME280;42298;53.638;9.876;2023-08-17T08:42:20;102104.56;;;18.16;77.60
56400;BME280;42298;53.638;9.876;2023-08-17T08:44:46;102108.09;;;18.16;77.61
56400;BME280;42298;53.638;9.876;2023-08-17T08:47:12;102101.34;;;18.20;77.15
56400;BME280;42298;53.638;9.876;2023-08-17T08:50:01;102107.97;;;18.10;77.30
56400;BME280;42298;53.638;9.876;2023-08-17T08:54:58;102093.56;;;17.94;77.31
56400;BME280;42298;53.638;9.876;2023-08-17T08:57:24;102092.38;;;17.97;77.45
56400;BME280;42298;53.638;9.876;2023-08-17T08:59:51;102091.91;;;17.93;77.32
56400;BME280;42298;53.638;9.876;2023-08-17T09:02:17;102086.16;;;17.96;77.45
56400;BME280;42298;53.638;9.876;2023-08-17T09:04:43;102084.59;;;18.02;77.07
56400;BME280;42298;53.638;9.876;2023-08-17T09:07:11;102082.38;;;18.06;77.72
56400;BME280;42298;53.638;9.876;2023-08-17T09:09:37;102088.56;;;18.14;77.18
56400;BME280;42298;53.638;9.876;2023-08-17T09:12:04;102092.97;;;18.15;77.27
56400;BME280;42298;53.638;9.876;2023-08-17T09:14:29;102089.06;;;18.18;76.94
56400;BME280;42298;53.638;9.876;2023-08-17T09:16:54;102092.44;;;18.20;77.32
56400;BME280;42298;53.638;9.876;2023-08-17T09:19:24;102093.28;;;18.12;76.71
56400;BME280;42298;53.638;9.876;2023-08-17T09:21:50;102099.88;;;18.10;76.73
56400;BME280;42298;53.638;9.876;2023-08-17T09:24:15;102092.34;;;18.05;77.21
56400;BME280;42298;53.638;9.876;2023-08-17T09:26:41;102098.44;;;17.99;76.89
56400;BME280;42298;53.638;9.876;2023-08-17T09:29:21;102086.44;;;18.02;76.61
56400;BME280;42298;53.638;9.876;2023-08-17T09:31:48;102078.59;;;17.92;76.27
56400;BME280;42298;53.638;9.876;2023-08-17T09:34:14;102077.91;;;17.98;76.90
56400;BME280;42298;53.638;9.876;2023-08-17T09:36:40;102062.75;;;17.89;76.35
56400;BME280;42298;53.638;9.876;2023-08-17T09:39:06;102066.13;;;17.91;76.93
56400;BME280;42298;53.638;9.876;2023-08-17T09:41:38;102064.63;;;17.88;77.12
56400;BME280;42298;53.638;9.876;2023-08-17T09:44:04;102065.59;;;17.95;77.22
56400;BME280;42298;53.638;9.876;2023-08-17T09:46:29;102064.88;;;18.02;77.47
56400;BME280;42298;53.638;9.876;2023-08-17T09:48:55;102059.44;;;18.10;77.50
56400;BME280;42298;53.638;9.876;2023-08-17T09:51:20;102051.91;;;18.05;77.71
56400;BME280;42298;53.638;9.876;2023-08-17T09:53:51;102055.94;;;18.09;77.96
56400;BME280;42298;53.638;9.876;2023-08-17T09:56:18;102055.56;;;18.12;78.12
56400;BME280;42298;53.638;9.876;2023-08-17T09:58:44;102059.22;;;18.19;78.30
56400;BME280;42298;53.638;9.876;2023-08-17T10:01:11;102053.94;;;18.26;78.19
56400;BME280;42298;53.638;9.876;2023-08-17T10:03:39;102060.06;;;18.43;78.36
56400;BME280;42298;53.638;9.876;2023-08-17T10:06:09;102058.31;;;18.50;77.70
56400;BME280;42298;53.638;9.876;2023-08-17T10:08:43;102061.38;;;18.47;78.02
56400;BME280;42298;53.638;9.876;2023-08-17T10:11:09;102063.06;;;18.25;77.56
56400;BME280;42298;53.638;9.876;2023-08-17T10:13:38;102061.47;;;18.31;77.86
56400;BME280;42298;53.638;9.876;2023-08-17T10:16:35;102070.41;;;18.08;75.19
56400;BME280;42298;53.638;9.876;2023-08-17T10:22:16;102065.16;;;17.84;72.77
56400;BME280;42298;53.638;9.876;2023-08-17T10:24:43;102056.44;;;17.73;73.25
56400;BME280;42298;53.638;9.876;2023-08-17T10:27:09;102059.59;;;17.77;73.50
56400;BME280;42298;53.638;9.876;2023-08-17T10:29:38;102060.09;;;17.81;73.34
56400;BME280;42298;53.638;9.876;2023-08-17T10:32:05;102055.97;;;17.62;72.37
56400;BME280;42298;53.638;9.876;2023-08-17T10:34:31;102051.63;;;17.61;73.57
56400;BME280;42298;53.638;9.876;2023-08-17T10:36:58;102032.22;;;17.65;73.73
56400;BME280;42298;53.638;9.876;2023-08-17T10:39:28;102048.31;;;17.82;74.28
56400;BME280;42298;53.638;9.876;2023-08-17T10:41:54;102033.84;;;17.83;73.33
56400;BME280;42298;53.638;9.876;2023-08-17T10:44:39;102025.75;;;17.83;73.76
56400;BME280;42298;53.638;9.876;2023-08-17T10:47:32;102013.63;;;17.87;74.48
56400;BME280;42298;53.638;9.876;2023-08-17T10:50:01;102029.13;;;17.85;73.15
56400;BME280;42298;53.638;9.876;2023-08-17T10:52:33;102033.84;;;17.83;73.86
56400;BME280;42298;53.638;9.876;2023-08-17T10:55:01;102036.25;;;17.69;73.62
56400;BME280;42298;53.638;9.876;2023-08-17T10:57:39;102043.06;;;17.88;74.81
56400;BME280;42298;53.638;9.876;2023-08-17T11:00:24;102037.50;;;17.90;73.85
56400;BME280;42298;53.638;9.876;2023-08-17T11:02:56;102043.53;;;18.00;74.29
56400;BME280;42298;53.638;9.876;2023-08-17T11:08:50;102049.03;;;18.07;74.76
56400;BME280;42298;53.638;9.876;2023-08-17T11:11:20;102044.31;;;18.09;75.44
56400;BME280;42298;53.638;9.876;2023-08-17T11:13:48;102046.13;;;18.08;75.45
56400;BME280;42298;53.638;9.876;2023-08-17T11:16:16;102048.53;;;18.26;75.47
56400;BME280;42298;53.638;9.876;2023-08-17T11:18:43;102038.75;;;18.33;75.36
56400;BME280;42298;53.638;9.876;2023-08-17T11:21:12;102052.13;;;18.41;75.46
56400;BME280;42298;53.638;9.876;2023-08-17T11:23:40;102056.31;;;18.44;74.61
56400;BME280;42298;53.638;9.876;2023-08-17T11:26:07;102064.31;;;18.37;74.69
56400;BME280;42298;53.638;9.876;2023-08-17T11:28:35;102052.38;;;18.32;75.42
56400;BME280;42298;53.638;9.876;2023-08-17T11:31:06;102067.31;;;18.43;75.46
56400;BME280;42298;53.638;9.876;2023-08-17T11:33:32;102065.63;;;18.41;75.06
56400;BME280;42298;53.638;9.876;2023-08-17T11:35:59;102054.06;;;18.33;75.33
56400;BME280;42298;53.638;9.876;2023-08-17T11:38:30;102062.41;;;18.23;75.42
56400;BME280;42298;53.638;9.876;2023-08-17T11:41:00;102062.94;;;18.18;75.38
56400;BME280;42298;53.638;9.876;2023-08-17T11:43:27;102053.81;;;18.19;76.17
56400;BME280;42298;53.638;9.876;2023-08-17T11:45:55;102057.84;;;18.24;76.24
56400;BME280;42298;53.638;9.876;2023-08-17T11:48:24;102061.38;;;18.24;76.34
56400;BME280;42298;53.638;9.876;2023-08-17T11:50:51;102057.50;;;18.27;76.55
56400;BME280;42298;53.638;9.876;2023-08-17T11:53:18;102075.63;;;18.33;76.25
56400;BME280;42298;53.638;9.876;2023-08-17T11:55:45;102074.00;;;18.24;76.43
56400;BME280;42298;53.638;9.876;2023-08-17T11:58:13;102071.97;;;18.26;76.89
56400;BME280;42298;53.638;9.876;2023-08-17T12:00:43;102050.41;;;18.26;76.83
56400;BME280;42298;53.638;9.876;2023-08-17T12:03:16;102060.88;;;18.44;77.01
56400;BME280;42298;53.638;9.876;2023-08-17T12:05:44;102058.03;;;18.45;76.78
56400;BME280;42298;53.638;9.876;2023-08-17T12:08:12;102060.00;;;18.51;76.94
56400;BME280;42298;53.638;9.876;2023-08-17T12:10:39;102039.38;;;18.58;76.85
56400;BME280;42298;53.638;9.876;2023-08-17T12:13:04;102065.69;;;18.56;76.59
56400;BME280;42298;53.638;9.876;2023-08-17T12:15:34;102065.63;;;18.41;76.21
56400;BME280;42298;53.638;9.876;2023-08-17T12:18:01;102053.09;;;18.26;76.30
56400;BME280;42298;53.638;9.876;2023-08-17T12:20:27;102054.84;;;18.18;76.38
56400;BME280;42298;53.638;9.876;2023-08-17T12:22:54;102050.13;;;18.20;76.33
56400;BME280;42298;53.638;9.876;2023-08-17T12:25:23;102055.00;;;18.17;76.75
56400;BME280;42298;53.638;9.876;2023-08-17T12:27:49;102052.16;;;18.18;76.83
56400;BME280;42298;53.638;9.876;2023-08-17T12:30:25;102036.34;;;18.15;76.44
56400;BME280;42298;53.638;9.876;2023-08-17T12:32:51;102042.06;;;18.12;76.33
56400;BME280;42298;53.638;9.876;2023-08-17T12:35:18;102033.81;;;18.14;77.15
56400;BME280;42298;53.638;9.876;2023-08-17T12:37:47;102038.38;;;18.13;76.61
56400;BME280;42298;53.638;9.876;2023-08-17T12:40:13;102047.13;;;18.15;76.56
56400;BME280;42298;53.638;9.876;2023-08-17T12:42:38;102042.38;;;18.17;76.66
56400;BME280;42298;53.638;9.876;2023-08-17T12:45:04;102052.53;;;18.15;76.89
56400;BME280;42298;53.638;9.876;2023-08-17T12:47:29;102054.84;;;18.18;77.23
56400;BME280;42298;53.638;9.876;2023-08-17T12:49:54;102054.44;;;18.30;77.06
56400;BME280;42298;53.638;9.876;2023-08-17T12:52:20;102048.97;;;18.38;76.42
56400;BME280;42298;53.638;9.876;2023-08-17T12:54:45;102048.19;;;18.52;76.79
56400;BME280;42298;53.638;9.876;2023-08-17T12:57:10;102044.22;;;18.63;76.43
56400;BME280;42298;53.638;9.876;2023-08-17T12:59:36;102033.53;;;18.70;76.69